Etusivu
METAR-TAF:

METAR-TAF

Lentoasemat :

Iguassu, Argentiina

Leveyspiiri: 25-44S, Pituuspiiri: 054-28W, korkeus merenpinnasta: 270 m

Tämänhetkinen sää

Tämä raportti tehtiin 15 minuuttia sitten, kello 23.00 UTC
tyyntä
Lämpötila 29°C
Kosteus 70%
Ilmanpaine 1007 hPa
Näkyvyys 10 km tai enemmän
ei pilviä alle 1500 m:ssä eikä cumulonimbus-pilviä

METAR: SARI 282300Z 00000KT CAVOK 29/23 Q1007

Aika: 20:15 (23:15 UTC)

Sääennuste

Tämä raportti tehtiin 6 tuntia ja 15 minuuttia sitten, kello 17.00 UTC
Ennuste voimassa 28. päivästä klo 18 UTC - 29. päivään klo 18 UTC
Tuuli 5 kn pohjoisesta
Näkyvyys 10 km tai enemmän
Hajanaisia pilviä 3000 ft:n korkeudessa
Todennäköisyys 30%
28. päivästä klo 19 UTC - 28. päivään klo 22 UTC
Näkyvyys: 8000 m
Hajonneita pilviä 2500 ft:n korkeudessa
Muutamia pilviä 4500 ft:n korkeudessa, Kasvava cumulus-pilvi.
heikkoja vesikuuroja

TAF: SARI 281700Z 2818/2918 36005KT 9999 SCT030 TX36/2819Z TN22/2909Z PROB30 2819/2822 8000 -SHRA BKN025 FEW045TCU

Säähavainnot ja -ennusteet yli 4000 lentoasemalta (METAR- ja TAF-raportit).

Käytössä olevat sääasemat on merkitty karttaan keltaisilla ja punaisilla pisteillä.

Aseta hiiri pisteen päälle nähdäksesi sääaseman nimen.

Klikkaa sitten nähdäksesi säähavainnot ja -ennusteet.

Kartan vaihtaminen: klikkaa mustalla rastilla varustettuja vihreitä pisteitä, niin voit zoomata sisään; viivalla varustettua vihreää pistettä, niin voit zoomata ulos tai vihreitä nuolia, niin pääset viereisille kartoille.


METAR-TAF: